createdAt,value
2022-12-04T00:01:28.131Z,36.90
2022-12-04T00:03:58.987Z,35.50
2022-12-04T00:06:28.844Z,38.40
2022-12-04T00:08:57.494Z,35.10
2022-12-04T00:11:28.830Z,35.60
2022-12-04T00:14:04.598Z,36.30
2022-12-04T00:16:35.809Z,37.00
2022-12-04T00:19:05.334Z,35.70
2022-12-04T00:21:33.677Z,33.90
2022-12-04T00:24:02.588Z,36.00
2022-12-04T00:26:31.370Z,37.40
2022-12-04T00:29:00.308Z,35.80
2022-12-04T00:31:30.975Z,38.00
2022-12-04T00:34:00.543Z,37.10
2022-12-04T00:36:29.798Z,36.60
2022-12-04T00:39:01.167Z,35.50
2022-12-04T00:41:31.605Z,37.40
2022-12-04T00:44:01.569Z,34.60
2022-12-04T00:46:30.564Z,37.30
2022-12-04T00:49:02.209Z,34.70
2022-12-04T00:51:30.989Z,35.80
2022-12-04T00:53:59.713Z,35.50
2022-12-04T00:56:29.665Z,35.30
2022-12-04T00:58:59.962Z,36.60
2022-12-04T01:01:29.686Z,36.40
2022-12-04T01:03:58.057Z,35.30
2022-12-04T01:06:32.757Z,35.10
2022-12-04T01:09:02.897Z,35.20
2022-12-04T01:11:32.050Z,33.40
2022-12-04T01:14:01.222Z,34.10
2022-12-04T01:16:33.783Z,34.30
2022-12-04T01:19:02.940Z,32.80
2022-12-04T01:21:31.586Z,34.50
2022-12-04T01:24:00.085Z,34.30
2022-12-04T01:26:28.769Z,35.70
2022-12-04T01:28:57.678Z,34.50
2022-12-04T01:31:26.058Z,34.80
2022-12-04T01:33:54.496Z,35.30
2022-12-04T01:36:28.240Z,35.50
2022-12-04T01:38:56.701Z,32.60
2022-12-04T01:41:28.010Z,36.00
2022-12-04T01:44:20.384Z,34.80
2022-12-04T01:49:31.579Z,32.90
2022-12-04T01:52:15.959Z,34.30
2022-12-04T01:54:48.294Z,33.60
2022-12-04T01:57:20.643Z,34.00
2022-12-04T01:59:56.976Z,34.80
2022-12-04T02:02:33.632Z,33.00
2022-12-04T02:05:04.657Z,33.10
2022-12-04T02:07:33.522Z,32.70
2022-12-04T02:10:06.529Z,33.00
2022-12-04T02:12:53.501Z,32.40
2022-12-04T02:15:53.414Z,32.50
2022-12-04T02:18:31.236Z,33.50
2022-12-04T02:21:08.555Z,33.70
2022-12-04T02:23:55.178Z,34.00
2022-12-04T02:26:56.505Z,33.00
2022-12-04T02:29:36.662Z,34.30
2022-12-04T02:32:23.002Z,34.40
2022-12-04T02:35:06.660Z,32.20
2022-12-04T02:37:39.441Z,32.50
2022-12-04T02:40:23.276Z,33.10
2022-12-04T02:43:24.893Z,32.40
2022-12-04T02:46:17.160Z,32.70
2022-12-04T02:48:49.605Z,33.60
2022-12-04T02:53:53.671Z,31.80
2022-12-04T02:56:32.543Z,32.00
2022-12-04T02:59:18.126Z,32.40
2022-12-04T03:01:51.764Z,33.30
2022-12-04T03:04:24.700Z,31.10
2022-12-04T03:06:58.393Z,32.80
2022-12-04T03:09:35.642Z,33.50
2022-12-04T03:12:13.063Z,30.80
2022-12-04T03:15:07.813Z,31.90
2022-12-04T03:17:50.589Z,33.20
2022-12-04T03:22:54.989Z,33.40
2022-12-04T03:25:29.140Z,31.90
2022-12-04T03:28:05.273Z,31.60
2022-12-04T03:30:41.982Z,32.30
2022-12-04T03:33:16.327Z,31.60
2022-12-04T03:35:53.005Z,32.50
2022-12-04T03:38:24.112Z,33.40
2022-12-04T03:41:11.541Z,33.20
2022-12-04T03:43:53.295Z,31.20
2022-12-04T03:46:29.939Z,32.40
2022-12-04T03:49:20.467Z,31.00
2022-12-04T03:52:15.728Z,32.10
2022-12-04T03:54:53.375Z,34.40
2022-12-04T03:57:28.288Z,32.70
2022-12-04T04:00:08.428Z,33.60
2022-12-04T04:02:45.271Z,33.00
2022-12-04T04:05:15.547Z,32.20
2022-12-04T04:07:52.522Z,32.00
2022-12-04T04:10:25.127Z,34.00
2022-12-04T04:16:24.963Z,32.30
2022-12-04T04:19:14.293Z,32.90
2022-12-04T04:22:02.495Z,31.30
2022-12-04T04:24:40.283Z,31.70
2022-12-04T04:27:08.895Z,32.30
2022-12-04T04:29:38.094Z,30.80
2022-12-04T04:32:12.329Z,32.20
2022-12-04T04:35:00.585Z,32.40
2022-12-04T04:37:38.058Z,30.00
2022-12-04T04:40:22.076Z,32.50
2022-12-04T04:43:10.251Z,31.50
2022-12-04T04:45:48.829Z,31.20
2022-12-04T04:48:33.657Z,31.10
2022-12-04T04:51:04.420Z,31.80
2022-12-04T04:53:39.744Z,30.40
2022-12-04T04:56:08.756Z,32.20
2022-12-04T04:58:36.946Z,31.20
2022-12-04T05:01:15.158Z,32.10
2022-12-04T05:03:43.499Z,31.20
2022-12-04T05:06:11.956Z,30.60
2022-12-04T05:08:40.527Z,29.50
2022-12-04T05:11:13.282Z,29.90
2022-12-04T05:13:42.580Z,32.50
2022-12-04T05:16:13.217Z,30.10
2022-12-04T05:19:03.284Z,32.00
2022-12-04T05:21:31.840Z,30.20
2022-12-04T05:24:00.087Z,30.10
2022-12-04T05:26:28.779Z,31.20
2022-12-04T05:28:57.085Z,30.30
2022-12-04T05:31:25.578Z,30.30
2022-12-04T05:33:54.080Z,29.60
2022-12-04T05:36:22.480Z,31.30
2022-12-04T05:38:50.903Z,31.80
2022-12-04T05:41:19.274Z,32.50
2022-12-04T05:43:47.699Z,30.00
2022-12-04T05:46:17.057Z,30.90
2022-12-04T05:48:45.443Z,31.90
2022-12-04T05:51:13.761Z,31.00
2022-12-04T05:53:42.011Z,31.90
2022-12-04T05:56:10.885Z,33.60
2022-12-04T05:58:39.299Z,32.70
2022-12-04T06:01:13.399Z,33.70
2022-12-04T06:03:41.879Z,31.60
2022-12-04T06:06:22.146Z,34.10
2022-12-04T06:08:52.788Z,32.20
2022-12-04T06:11:24.288Z,33.60
2022-12-04T06:13:53.451Z,32.50
2022-12-04T06:16:24.988Z,32.30
2022-12-04T06:18:58.854Z,32.90
2022-12-04T06:21:30.695Z,33.40
2022-12-04T06:23:59.402Z,33.40
2022-12-04T06:26:27.841Z,30.40
2022-12-04T06:28:57.805Z,32.00
2022-12-04T06:31:28.563Z,31.10
2022-12-04T06:33:58.779Z,29.30
2022-12-04T06:36:27.226Z,31.20
2022-12-04T06:38:56.804Z,30.10
2022-12-04T06:41:27.011Z,28.90
2022-12-04T06:43:56.043Z,29.10
2022-12-04T06:46:30.629Z,30.60
2022-12-04T06:49:01.773Z,29.40
2022-12-04T06:51:33.235Z,30.70
2022-12-04T06:54:02.545Z,29.30
2022-12-04T06:56:33.033Z,28.40
2022-12-04T06:59:03.767Z,28.40
2022-12-04T07:01:34.134Z,28.70
2022-12-04T07:04:04.562Z,26.80
2022-12-04T07:06:35.803Z,31.10
2022-12-04T07:09:10.512Z,29.20
2022-12-04T07:11:40.271Z,29.00
2022-12-04T07:14:09.123Z,30.30
2022-12-04T07:16:41.179Z,29.60
2022-12-04T07:19:11.586Z,30.00
2022-12-04T07:21:40.706Z,29.30
2022-12-04T07:24:14.985Z,27.50
2022-12-04T07:26:43.619Z,28.50
2022-12-04T07:29:12.068Z,28.00
2022-12-04T07:31:40.495Z,28.50
2022-12-04T07:34:09.085Z,28.60
2022-12-04T07:36:39.748Z,28.30
2022-12-04T07:39:07.920Z,28.40
2022-12-04T07:41:36.486Z,27.70
2022-12-04T07:44:07.575Z,28.10
2022-12-04T07:46:35.894Z,27.80
2022-12-04T07:49:04.499Z,28.20
2022-12-04T07:51:32.938Z,28.10
2022-12-04T07:54:04.044Z,28.80
2022-12-04T07:56:33.802Z,30.70
2022-12-04T07:59:02.840Z,27.70
2022-12-04T08:01:31.700Z,29.10
2022-12-04T08:04:01.377Z,29.70
2022-12-04T08:06:32.556Z,27.40
2022-12-04T08:09:06.118Z,27.80
2022-12-04T08:11:38.106Z,28.50
2022-12-04T08:14:09.014Z,28.80
2022-12-04T08:16:37.933Z,29.30
2022-12-04T08:19:06.670Z,28.70
2022-12-04T08:21:34.913Z,29.30
2022-12-04T08:24:03.523Z,27.10
2022-12-04T08:26:34.017Z,26.90
2022-12-04T08:29:03.267Z,28.20
2022-12-04T08:31:34.109Z,26.60
2022-12-04T08:34:04.786Z,27.50
2022-12-04T08:36:33.881Z,26.50
2022-12-04T08:39:02.139Z,27.10
2022-12-04T08:41:30.668Z,26.30
2022-12-04T08:43:59.584Z,26.40
2022-12-04T08:46:29.082Z,26.40
2022-12-04T08:48:59.112Z,27.20
2022-12-04T08:51:44.717Z,27.30
2022-12-04T08:54:14.947Z,27.60
2022-12-04T08:56:45.462Z,26.80
2022-12-04T08:59:15.177Z,28.20
2022-12-04T09:01:45.245Z,28.80
2022-12-04T09:04:15.109Z,27.50
2022-12-04T09:06:44.514Z,27.20
2022-12-04T09:09:14.148Z,28.60
2022-12-04T09:11:50.312Z,27.30
2022-12-04T09:14:26.572Z,27.40
2022-12-04T09:16:56.776Z,28.00
2022-12-04T09:19:29.115Z,28.70
2022-12-04T09:22:04.760Z,26.40
2022-12-04T09:24:35.003Z,26.20
2022-12-04T09:27:14.496Z,27.30
2022-12-04T09:29:45.481Z,26.50
2022-12-04T09:32:18.614Z,27.90
2022-12-04T09:34:52.694Z,27.50
2022-12-04T09:37:23.104Z,28.70
2022-12-04T09:39:54.639Z,26.30
2022-12-04T09:42:34.524Z,27.60
2022-12-04T09:45:17.243Z,27.20
2022-12-04T09:47:50.645Z,26.30
2022-12-04T09:50:32.559Z,28.60
2022-12-04T09:53:11.542Z,26.50
2022-12-04T09:55:46.897Z,27.40
2022-12-04T09:58:24.509Z,27.60
2022-12-04T10:01:01.252Z,27.50
2022-12-04T10:03:33.237Z,27.90
2022-12-04T10:06:15.752Z,26.80
2022-12-04T10:11:32.792Z,27.00
2022-12-04T10:14:17.088Z,26.50
2022-12-04T10:17:08.465Z,26.90
2022-12-04T10:20:18.838Z,27.60
2022-12-04T10:23:13.388Z,27.00
2022-12-04T10:25:44.155Z,27.60
2022-12-04T10:28:15.938Z,27.60
2022-12-04T10:30:45.975Z,26.50
2022-12-04T10:33:24.280Z,25.80
2022-12-04T10:35:54.721Z,26.00
2022-12-04T10:38:42.724Z,27.20
2022-12-04T10:41:20.914Z,26.50
2022-12-04T10:43:50.555Z,25.70
2022-12-04T10:46:31.842Z,25.30
2022-12-04T10:49:03.228Z,26.70
2022-12-04T10:51:38.667Z,26.70
2022-12-04T10:54:31.645Z,26.40
2022-12-04T10:57:18.328Z,26.40
2022-12-04T10:59:52.873Z,27.40
2022-12-04T11:02:25.826Z,25.70
2022-12-04T11:05:00.633Z,26.00
2022-12-04T11:07:38.112Z,25.40
2022-12-04T11:10:41.265Z,26.90
2022-12-04T11:13:13.160Z,26.00
2022-12-04T11:15:54.346Z,25.90
2022-12-04T11:18:34.125Z,27.20
2022-12-04T11:21:20.191Z,26.60
2022-12-04T11:23:52.786Z,24.40
2022-12-04T11:29:05.669Z,25.30
2022-12-04T11:31:34.486Z,25.90
2022-12-04T11:34:07.589Z,25.90
2022-12-04T11:36:41.317Z,24.60
2022-12-04T11:39:12.808Z,26.00
2022-12-04T11:41:41.854Z,23.60
2022-12-04T11:44:26.753Z,22.70
2022-12-04T11:46:58.557Z,24.70
2022-12-04T11:49:27.841Z,24.50
2022-12-04T11:52:12.108Z,23.40
2022-12-04T11:54:52.603Z,22.80
2022-12-04T11:57:42.547Z,21.90
2022-12-04T12:00:23.017Z,22.30
2022-12-04T12:03:26.624Z,23.10
2022-12-04T12:06:23.461Z,22.90
2022-12-04T12:09:03.892Z,21.80
2022-12-04T12:11:41.233Z,22.90
2022-12-04T12:14:19.288Z,22.40
2022-12-04T12:16:56.333Z,23.40
2022-12-04T12:19:36.875Z,22.40
2022-12-04T12:22:42.225Z,22.00
2022-12-04T12:25:22.107Z,23.60
2022-12-04T12:28:16.061Z,23.40
2022-12-04T12:31:06.284Z,21.70
2022-12-04T12:33:42.673Z,22.20
2022-12-04T12:36:12.990Z,23.60
2022-12-04T12:38:50.384Z,23.20
2022-12-04T12:41:39.747Z,23.70
2022-12-04T12:44:27.321Z,23.50
2022-12-04T12:47:02.295Z,22.80
2022-12-04T12:49:47.983Z,25.60
2022-12-04T12:52:27.562Z,23.20
2022-12-04T12:55:01.830Z,25.40
2022-12-04T12:57:38.102Z,24.80
2022-12-04T13:00:15.179Z,24.50
2022-12-04T13:03:02.917Z,23.50
2022-12-04T13:05:39.907Z,23.80
2022-12-04T13:08:29.894Z,24.80
2022-12-04T13:11:18.392Z,23.80
2022-12-04T13:13:53.171Z,25.00
2022-12-04T13:16:28.590Z,25.40
2022-12-04T13:19:11.737Z,26.10
2022-12-04T13:21:46.887Z,24.40
2022-12-04T13:24:48.096Z,23.90
2022-12-04T13:27:41.335Z,23.90
2022-12-04T13:30:18.918Z,24.20
2022-12-04T13:33:22.748Z,23.90
2022-12-04T13:36:07.124Z,24.20
2022-12-04T13:38:58.045Z,23.50
2022-12-04T13:41:28.423Z,23.30
2022-12-04T13:43:59.728Z,23.30
2022-12-04T13:46:49.701Z,24.60
2022-12-04T13:49:18.248Z,23.50
2022-12-04T13:51:51.071Z,23.80
2022-12-04T13:54:34.358Z,24.20
2022-12-04T13:57:15.126Z,23.50
2022-12-04T13:59:44.631Z,23.30
2022-12-04T14:02:25.505Z,25.00
2022-12-04T14:05:01.037Z,24.10
2022-12-04T14:07:34.090Z,25.30
2022-12-04T14:10:07.544Z,25.30
2022-12-04T14:12:42.779Z,25.30
2022-12-04T14:15:25.947Z,25.20
2022-12-04T14:18:24.734Z,25.70
2022-12-04T14:21:04.640Z,23.30
2022-12-04T14:23:41.538Z,25.30
2022-12-04T14:29:49.561Z,24.70
2022-12-04T14:32:28.099Z,23.70
2022-12-04T14:34:57.681Z,24.90
2022-12-04T14:37:34.914Z,24.40
2022-12-04T14:40:07.718Z,23.90
2022-12-04T14:42:40.182Z,24.60
2022-12-04T14:45:26.690Z,24.50
2022-12-04T14:48:38.445Z,24.00
2022-12-04T14:51:30.458Z,22.10
2022-12-04T14:54:13.535Z,23.90
2022-12-04T14:56:59.819Z,22.10
2022-12-04T14:59:41.691Z,22.70
2022-12-04T15:02:22.127Z,24.90
2022-12-04T15:04:51.129Z,22.50
2022-12-04T15:07:22.716Z,24.30
2022-12-04T15:10:15.667Z,23.80
2022-12-04T15:12:51.159Z,22.90
2022-12-04T15:15:28.778Z,22.90
2022-12-04T15:17:58.984Z,22.30
2022-12-04T15:20:32.201Z,24.20
2022-12-04T15:23:03.782Z,25.90
2022-12-04T15:25:46.493Z,24.20
2022-12-04T15:28:20.942Z,23.90
2022-12-04T15:30:50.975Z,25.00
2022-12-04T15:33:23.288Z,24.20
2022-12-04T15:36:01.797Z,24.00
2022-12-04T15:38:30.240Z,25.60
2022-12-04T15:41:00.031Z,25.40
2022-12-04T15:43:30.792Z,25.00
2022-12-04T15:46:00.267Z,25.00
2022-12-04T15:48:31.088Z,26.60
2022-12-04T15:51:03.524Z,26.50
2022-12-04T15:53:37.243Z,25.10
2022-12-04T15:56:16.521Z,26.60
2022-12-04T15:58:56.334Z,25.90
2022-12-04T16:01:24.913Z,26.90
2022-12-04T16:03:56.102Z,27.30
2022-12-04T16:06:27.844Z,25.30
2022-12-04T16:08:59.182Z,27.70
2022-12-04T16:11:37.696Z,26.30
2022-12-04T16:14:08.894Z,25.20
2022-12-04T16:16:46.372Z,26.90
2022-12-04T16:19:19.207Z,26.10
2022-12-04T16:21:47.727Z,26.80
2022-12-04T16:24:16.536Z,26.70
2022-12-04T16:26:45.091Z,25.70
2022-12-04T16:29:13.336Z,25.90
2022-12-04T16:31:41.709Z,27.80
2022-12-04T16:34:12.988Z,26.00
2022-12-04T16:36:41.657Z,26.90
2022-12-04T16:39:09.988Z,26.30
2022-12-04T16:41:38.436Z,25.90
2022-12-04T16:44:14.721Z,25.80
2022-12-04T16:46:44.145Z,28.10
2022-12-04T16:49:13.319Z,24.90
2022-12-04T16:51:46.948Z,24.90
2022-12-04T16:54:15.667Z,24.80
2022-12-04T16:56:43.958Z,25.10
2022-12-04T16:59:12.693Z,25.20
2022-12-04T17:01:46.237Z,23.70
2022-12-04T17:04:16.227Z,24.30
2022-12-04T17:06:45.410Z,24.20
2022-12-04T17:09:14.340Z,25.00
2022-12-04T17:11:43.556Z,23.10
2022-12-04T17:14:11.756Z,24.90
2022-12-04T17:16:44.030Z,23.30
2022-12-04T17:19:13.249Z,25.60
2022-12-04T17:21:41.772Z,24.90
2022-12-04T17:24:10.128Z,24.60
2022-12-04T17:26:38.759Z,25.00
2022-12-04T17:29:06.975Z,24.90
2022-12-04T17:31:35.354Z,22.80
2022-12-04T17:34:03.778Z,23.20
2022-12-04T17:36:32.014Z,25.30
2022-12-04T17:39:04.315Z,24.80
2022-12-04T17:44:01.699Z,24.00
2022-12-04T17:46:30.241Z,23.50
2022-12-04T17:49:01.582Z,25.60
2022-12-04T17:51:35.111Z,25.10
2022-12-04T17:54:04.927Z,26.30
2022-12-04T17:56:34.220Z,24.50
2022-12-04T17:59:03.102Z,24.70
2022-12-04T18:01:31.821Z,24.00
2022-12-04T18:04:03.435Z,25.30
2022-12-04T18:06:40.708Z,24.50
2022-12-04T18:09:10.999Z,24.40
2022-12-04T18:11:41.673Z,24.20
2022-12-04T18:14:17.902Z,24.50
2022-12-04T18:16:53.463Z,25.90
2022-12-04T18:19:25.049Z,25.80
2022-12-04T18:21:54.373Z,25.00
2022-12-04T18:24:24.466Z,25.70
2022-12-04T18:26:53.002Z,26.30
2022-12-04T18:29:25.056Z,24.90
2022-12-04T18:31:53.759Z,24.30
2022-12-04T18:34:23.416Z,23.60
2022-12-04T18:36:51.821Z,22.70
2022-12-04T18:39:22.578Z,23.10
2022-12-04T18:41:51.352Z,23.20
2022-12-04T18:44:20.322Z,23.90
2022-12-04T18:46:49.333Z,22.80
2022-12-04T18:49:17.729Z,24.70
2022-12-04T18:51:50.097Z,22.90
2022-12-04T18:54:22.012Z,22.00
2022-12-04T18:56:50.732Z,25.30
2022-12-04T18:59:27.066Z,22.90
2022-12-04T19:01:55.730Z,22.50
2022-12-04T19:04:25.806Z,23.80
2022-12-04T19:06:56.176Z,22.30
2022-12-04T19:09:54.402Z,23.30
2022-12-04T19:12:16.739Z,21.90
2022-12-04T19:14:45.377Z,23.70
2022-12-04T19:17:13.680Z,22.80
2022-12-04T19:19:42.146Z,22.70
2022-12-04T19:22:10.402Z,21.00
2022-12-04T19:24:38.660Z,22.70
2022-12-04T19:27:12.937Z,22.00
2022-12-04T19:29:43.481Z,21.60
2022-12-04T19:32:12.238Z,20.80
2022-12-04T19:34:40.929Z,20.10
2022-12-04T19:37:09.420Z,20.00
2022-12-04T19:39:37.885Z,20.80
2022-12-04T19:42:06.114Z,21.20
2022-12-04T19:44:50.693Z,21.00
2022-12-04T19:47:19.062Z,21.60
2022-12-04T19:49:47.329Z,19.90
2022-12-04T19:52:16.088Z,20.00
2022-12-04T19:54:44.381Z,21.10
2022-12-04T19:57:14.745Z,20.00
2022-12-04T19:59:46.285Z,20.70
2022-12-04T20:02:15.661Z,20.50
2022-12-04T20:04:44.522Z,19.30
2022-12-04T20:07:12.922Z,20.20
2022-12-04T20:09:42.510Z,20.40
2022-12-04T20:12:12.234Z,19.50
2022-12-04T20:14:40.606Z,19.50
2022-12-04T20:17:09.300Z,18.80
2022-12-04T20:19:37.554Z,19.10
2022-12-04T20:22:05.823Z,20.00
2022-12-04T20:24:34.462Z,19.70
2022-12-04T20:27:03.426Z,18.40
2022-12-04T20:29:31.673Z,19.40
2022-12-04T20:32:00.047Z,20.10
2022-12-04T20:34:29.314Z,19.30
2022-12-04T20:36:59.043Z,19.20
2022-12-04T20:39:28.330Z,19.20
2022-12-04T20:41:56.791Z,19.00
2022-12-04T20:44:25.039Z,19.20
2022-12-04T20:46:53.647Z,18.10
2022-12-04T20:49:22.634Z,19.00
2022-12-04T20:51:52.315Z,19.60
2022-12-04T20:54:23.363Z,17.90
2022-12-04T20:56:53.414Z,19.20
2022-12-04T20:59:23.872Z,20.70
2022-12-04T21:01:53.022Z,19.00
2022-12-04T21:04:21.994Z,17.90
2022-12-04T21:06:50.444Z,19.70
2022-12-04T21:09:22.245Z,19.70
2022-12-04T21:11:53.288Z,19.30
2022-12-04T21:14:43.445Z,18.80
2022-12-04T21:17:18.783Z,19.60
2022-12-04T21:19:50.980Z,18.70
2022-12-04T21:22:19.844Z,18.50
2022-12-04T21:24:48.305Z,19.70
2022-12-04T21:27:20.973Z,18.00
2022-12-04T21:29:50.003Z,17.80
2022-12-04T21:32:20.112Z,18.50
2022-12-04T21:34:49.147Z,20.50
2022-12-04T21:37:17.693Z,19.30
2022-12-04T21:39:46.063Z,17.90
2022-12-04T21:42:33.102Z,18.60
2022-12-04T21:45:04.598Z,18.60
2022-12-04T21:47:33.193Z,18.30
2022-12-04T21:50:01.561Z,19.00
2022-12-04T21:52:31.088Z,17.30
2022-12-04T21:54:59.233Z,17.60
2022-12-04T21:57:29.012Z,18.60
2022-12-04T21:59:57.792Z,18.50
2022-12-04T22:02:26.625Z,18.40
2022-12-04T22:04:54.867Z,17.90
2022-12-04T22:07:23.356Z,18.00
2022-12-04T22:09:52.255Z,17.50
2022-12-04T22:12:47.844Z,17.00
2022-12-04T22:15:09.415Z,18.40
2022-12-04T22:17:37.846Z,17.40
2022-12-04T22:20:07.232Z,17.90
2022-12-04T22:22:36.074Z,17.70
2022-12-04T22:25:04.624Z,17.30
2022-12-04T22:27:32.842Z,16.60
2022-12-04T22:30:01.289Z,17.50
2022-12-04T22:32:29.650Z,16.70
2022-12-04T22:34:57.987Z,16.20
2022-12-04T22:37:26.529Z,17.60
2022-12-04T22:39:55.103Z,17.90
2022-12-04T22:42:23.539Z,16.80
2022-12-04T22:44:53.229Z,17.50
2022-12-04T22:47:21.466Z,16.80
2022-12-04T22:49:49.680Z,16.50
2022-12-04T22:52:19.285Z,16.70
2022-12-04T22:54:50.961Z,16.50
2022-12-04T22:57:19.303Z,15.10
2022-12-04T22:59:47.572Z,16.50
2022-12-04T23:02:16.031Z,16.50
2022-12-04T23:04:45.021Z,17.10
2022-12-04T23:07:13.364Z,15.30
2022-12-04T23:09:41.870Z,16.90
2022-12-04T23:12:10.319Z,14.90
2022-12-04T23:14:38.797Z,16.20
2022-12-04T23:17:07.309Z,15.70
2022-12-04T23:19:35.754Z,15.10
2022-12-04T23:22:04.237Z,16.30
2022-12-04T23:24:33.368Z,16.30
2022-12-04T23:27:01.627Z,15.70
2022-12-04T23:29:52.218Z,15.70
2022-12-04T23:32:18.838Z,15.90
2022-12-04T23:34:47.179Z,15.80
2022-12-04T23:37:15.452Z,15.80
2022-12-04T23:39:43.707Z,16.70
2022-12-04T23:42:12.080Z,14.80
2022-12-04T23:44:40.270Z,15.60
2022-12-04T23:47:08.955Z,17.30
2022-12-04T23:49:37.207Z,17.40
2022-12-04T23:52:05.396Z,15.40
2022-12-04T23:54:36.103Z,17.70
2022-12-04T23:57:04.429Z,15.30
2022-12-04T23:59:32.894Z,16.10
